San Antonio, Texas
Traffic Map
Current Weather Conditions
San Antonio, Texas
Few Clouds
Few Clouds
74°
Feels Like: 74°
Wind Chill: 74° Ceiling: Unl
Heat Index: 74° Visibility: 10mi
Dew Point: 69° Wind: 6mph
Humidity: 85% Direction: 230° (SW)
Pressure: 29.85in Gusts: 0mph
Raw Report DataKSAT 261151Z 23005KT 10SM FEW030 23/21 A2985 RMK AO2 SLP089 T02330206 10272 20222 55014
Traffic Incident Summary
Active as of:
Severity:
Category:
InformationThere was an issue retrieving the traffic information for this location. Please try a different location or try again shortly.
Advertisements